createdAt,value
2023-04-22T00:01:12.960Z,100326.78
2023-04-22T00:03:42.495Z,100334.44
2023-04-22T00:06:11.067Z,100338.91
2023-04-22T00:08:38.457Z,100339.72
2023-04-22T00:11:06.690Z,100342.59
2023-04-22T00:13:34.158Z,100344.19
2023-04-22T00:16:01.602Z,100347.53
2023-04-22T00:18:29.249Z,100347.53
2023-04-22T00:20:56.809Z,100341.59
2023-04-22T00:23:24.138Z,100355.59
2023-04-22T00:25:51.592Z,100351.25
2023-04-22T00:28:18.982Z,100354.81
2023-04-22T00:30:46.377Z,100351.03
2023-04-22T00:33:13.836Z,100354.94
2023-04-22T00:35:41.254Z,100359.84
2023-04-22T00:38:08.664Z,100359.66
2023-04-22T00:40:36.509Z,100359.56
2023-04-22T00:43:04.044Z,100355.19
2023-04-22T00:45:31.837Z,100359.84
2023-04-22T00:48:00.241Z,100364.56
2023-04-22T00:50:28.026Z,100364.22
2023-04-22T00:52:55.501Z,100364.13
2023-04-22T00:55:22.901Z,100365.13
2023-04-22T00:57:52.436Z,100364.41
2023-04-22T01:00:20.458Z,100367.19
2023-04-22T01:02:48.307Z,100368.09
2023-04-22T01:05:16.642Z,100367.19
2023-04-22T01:07:44.150Z,100366.44
2023-04-22T01:10:11.711Z,100368.19
2023-04-22T01:12:39.189Z,100369.03
2023-04-22T01:15:07.619Z,100375.69
2023-04-22T01:17:35.731Z,100376.44
2023-04-22T01:20:07.630Z,100371.16
2023-04-22T01:22:40.661Z,100373.66
2023-04-22T01:25:09.690Z,100364.75
2023-04-22T01:27:37.591Z,100363.09
2023-04-22T01:30:06.622Z,100366.06
2023-04-22T01:32:34.813Z,100369.13
2023-04-22T01:35:02.852Z,100363.19
2023-04-22T01:37:31.056Z,100376.44
2023-04-22T01:39:59.344Z,100375.50
2023-04-22T01:42:27.113Z,100372.44
2023-04-22T01:44:54.573Z,100373.19
2023-04-22T01:47:21.971Z,100369.13
2023-04-22T01:49:49.495Z,100371.59
2023-04-22T01:52:17.607Z,100366.91
2023-04-22T01:54:44.946Z,100372.63
2023-04-22T01:57:14.445Z,100368.47
2023-04-22T01:59:42.184Z,100367.63
2023-04-22T02:02:10.059Z,100366.44
2023-04-22T02:04:37.581Z,100365.53
2023-04-22T02:07:05.156Z,100366.53
2023-04-22T02:09:33.808Z,100370.41
2023-04-22T02:12:01.671Z,100375.78
2023-04-22T02:14:29.388Z,100364.75
2023-04-22T02:16:58.981Z,100370.41
2023-04-22T02:19:26.505Z,100368.56
2023-04-22T02:21:54.462Z,100364.22
2023-04-22T02:24:22.094Z,100364.88
2023-04-22T02:26:49.468Z,100369.59
2023-04-22T02:29:17.361Z,100373.66
2023-04-22T02:31:44.885Z,100373.56
2023-04-22T02:34:12.305Z,100375.25
2023-04-22T02:36:39.639Z,100376.25
2023-04-22T02:39:07.346Z,100372.75
2023-04-22T02:41:35.701Z,100376.16
2023-04-22T02:44:03.094Z,100375.44
2023-04-22T02:46:30.501Z,100378.94
2023-04-22T02:48:57.955Z,100376.97
2023-04-22T02:51:25.525Z,100376.63
2023-04-22T02:53:53.539Z,100381.34
2023-04-22T02:56:21.512Z,100384.75
2023-04-22T02:58:49.129Z,100391.38
2023-04-22T03:01:16.602Z,100392.09
2023-04-22T03:03:44.210Z,100396.31
2023-04-22T03:06:11.835Z,100394.41
2023-04-22T03:08:39.819Z,100398.28
2023-04-22T03:11:07.365Z,100404.50
2023-04-22T03:13:34.897Z,100411.16
2023-04-22T03:16:02.361Z,100410.41
2023-04-22T03:18:32.146Z,100420.50
2023-04-22T03:21:00.981Z,100415.31
2023-04-22T03:23:28.350Z,100424.03
2023-04-22T03:25:55.876Z,100427.19
2023-04-22T03:28:23.285Z,100431.53
2023-04-22T03:30:50.713Z,100428.38
2023-04-22T03:33:18.608Z,100433.56
2023-04-22T03:35:49.348Z,100438.00
2023-04-22T03:38:17.204Z,100446.63
2023-04-22T03:40:44.554Z,100446.41
2023-04-22T03:43:12.147Z,100445.81
2023-04-22T03:45:39.663Z,100443.09
2023-04-22T03:48:07.233Z,100454.75
2023-04-22T03:50:34.690Z,100448.34
2023-04-22T03:53:02.145Z,100454.84
2023-04-22T03:55:29.637Z,100469.44
2023-04-22T03:57:56.989Z,100466.22
2023-04-22T04:00:24.444Z,100462.06
2023-04-22T04:02:52.001Z,100467.88
2023-04-22T04:05:19.811Z,100475.13
2023-04-22T04:07:47.455Z,100470.84
2023-04-22T04:10:14.824Z,100480.88
2023-04-22T04:12:42.204Z,100471.03
2023-04-22T04:15:09.771Z,100474.59
2023-04-22T04:17:37.427Z,100476.84
2023-04-22T04:20:05.218Z,100476.63
2023-04-22T04:22:33.597Z,100480.53
2023-04-22T04:25:01.800Z,100478.28
2023-04-22T04:27:29.681Z,100482.63
2023-04-22T04:29:57.109Z,100482.69
2023-04-22T04:32:25.279Z,100493.19
2023-04-22T04:34:52.874Z,100491.31
2023-04-22T04:37:20.431Z,100504.22
2023-04-22T04:39:48.592Z,100495.84
2023-04-22T04:42:16.036Z,100498.16
2023-04-22T04:44:43.384Z,100499.44
2023-04-22T04:47:13.192Z,100491.59
2023-04-22T04:49:41.220Z,100496.84
2023-04-22T04:52:11.441Z,100504.06
2023-04-22T04:54:38.772Z,100505.56
2023-04-22T04:57:06.656Z,100508.44
2023-04-22T04:59:34.078Z,100508.81
2023-04-22T05:02:01.484Z,100513.53
2023-04-22T05:04:29.312Z,100511.84
2023-04-22T05:06:56.856Z,100517.22
2023-04-22T05:09:24.206Z,100514.84
2023-04-22T05:11:51.630Z,100515.69
2023-04-22T05:14:18.946Z,100514.97
2023-04-22T05:16:46.447Z,100524.69
2023-04-22T05:19:13.929Z,100529.50
2023-04-22T05:21:41.265Z,100532.13
2023-04-22T05:24:08.662Z,100538.03
2023-04-22T05:26:36.800Z,100538.41
2023-04-22T05:29:04.171Z,100539.22
2023-04-22T05:31:31.776Z,100542.25
2023-04-22T05:33:59.262Z,100546.91
2023-04-22T05:36:30.579Z,100542.03
2023-04-22T05:38:58.771Z,100547.47
2023-04-22T05:41:26.363Z,100544.72
2023-04-22T05:43:53.794Z,100552.44
2023-04-22T05:46:21.265Z,100545.94
2023-04-22T05:48:48.949Z,100556.69
2023-04-22T05:51:16.283Z,100544.44
2023-04-22T05:53:43.713Z,100549.63
2023-04-22T05:56:11.082Z,100559.66
2023-04-22T05:58:38.558Z,100551.41
2023-04-22T06:01:06.001Z,100555.94
2023-04-22T06:03:33.555Z,100571.97
2023-04-22T06:06:01.135Z,100560.84
2023-04-22T06:08:31.692Z,100567.78
2023-04-22T06:10:59.192Z,100572.72
2023-04-22T06:13:27.584Z,100577.25
2023-04-22T06:15:55.050Z,100578.34
2023-04-22T06:18:23.075Z,100579.09
2023-04-22T06:20:52.083Z,100576.94
2023-04-22T06:23:19.537Z,100586.00
2023-04-22T06:25:47.594Z,100595.16
2023-04-22T06:28:15.038Z,100583.34
2023-04-22T06:30:42.403Z,100583.72
2023-04-22T06:33:10.064Z,100589.03
2023-04-22T06:35:37.579Z,100589.25
2023-04-22T06:38:04.971Z,100601.22
2023-04-22T06:40:32.359Z,100594.03
2023-04-22T06:42:59.950Z,100601.50
2023-04-22T06:45:27.494Z,100595.34
2023-04-22T06:47:55.104Z,100612.22
2023-04-22T06:50:22.860Z,100610.63
2023-04-22T06:52:50.304Z,100609.19
2023-04-22T06:55:17.757Z,100614.31
2023-04-22T06:57:45.189Z,100622.84
2023-04-22T07:00:13.098Z,100620.31
2023-04-22T07:02:40.600Z,100618.75
2023-04-22T07:05:08.401Z,100623.47
2023-04-22T07:07:36.252Z,100628.31
2023-04-22T07:10:05.613Z,100628.50
2023-04-22T07:12:33.046Z,100636.19
2023-04-22T07:15:00.574Z,100627.66
2023-04-22T07:17:28.070Z,100633.31
2023-04-22T07:19:56.004Z,100646.50
2023-04-22T07:22:23.407Z,100631.78
2023-04-22T07:24:50.834Z,100633.13
2023-04-22T07:27:18.317Z,100640.59
2023-04-22T07:29:45.706Z,100640.03
2023-04-22T07:32:13.401Z,100641.66
2023-04-22T07:34:40.933Z,100649.63
2023-04-22T07:37:09.635Z,100650.03
2023-04-22T07:39:37.739Z,100655.13
2023-04-22T07:42:05.692Z,100655.97
2023-04-22T07:44:33.342Z,100653.84
2023-04-22T07:47:00.920Z,100654.34
2023-04-22T07:49:28.367Z,100654.44
2023-04-22T07:51:57.245Z,100660.06
2023-04-22T07:54:24.665Z,100669.66
2023-04-22T07:56:52.040Z,100666.44
2023-04-22T07:59:19.730Z,100673.56
2023-04-22T08:01:47.121Z,100673.13
2023-04-22T08:04:14.807Z,100669.09
2023-04-22T08:06:42.751Z,100681.19
2023-04-22T08:09:12.268Z,100676.38
2023-04-22T08:11:39.673Z,100673.72
2023-04-22T08:14:07.075Z,100678.41
2023-04-22T08:16:34.515Z,100688.75
2023-04-22T08:19:01.862Z,100682.09
2023-04-22T08:21:29.426Z,100682.69
2023-04-22T08:23:56.872Z,100680.44
2023-04-22T08:26:24.293Z,100689.50
2023-04-22T08:28:51.858Z,100689.28
2023-04-22T08:31:19.282Z,100695.94
2023-04-22T08:33:46.834Z,100699.09
2023-04-22T08:36:14.715Z,100702.28
2023-04-22T08:38:42.041Z,100701.19
2023-04-22T08:41:10.109Z,100698.47
2023-04-22T08:43:37.702Z,100700.41
2023-04-22T08:46:05.873Z,100704.75
2023-04-22T08:48:33.475Z,100711.59
2023-04-22T08:51:01.365Z,100717.16
2023-04-22T08:53:29.147Z,100714.78
2023-04-22T08:55:56.816Z,100712.75
2023-04-22T08:58:24.590Z,100709.00
2023-04-22T09:00:52.888Z,100714.66
2023-04-22T09:03:21.934Z,100712.06
2023-04-22T09:05:52.533Z,100717.34
2023-04-22T09:08:20.651Z,100718.22
2023-04-22T09:10:48.108Z,100715.56
2023-04-22T09:13:17.202Z,100721.84
2023-04-22T09:15:44.621Z,100724.06
2023-04-22T09:18:12.065Z,100728.16
2023-04-22T09:20:42.376Z,100730.44
2023-04-22T09:23:12.753Z,100732.47
2023-04-22T09:25:41.159Z,100729.47
2023-04-22T09:28:13.103Z,100730.94
2023-04-22T09:30:40.681Z,100730.72
2023-04-22T09:33:08.472Z,100732.84
2023-04-22T09:35:40.691Z,100731.53
2023-04-22T09:38:10.304Z,100736.31
2023-04-22T09:40:43.232Z,100734.75
2023-04-22T09:43:11.605Z,100729.16
2023-04-22T09:45:43.178Z,100736.72
2023-04-22T09:48:13.051Z,100736.75
2023-04-22T09:50:44.870Z,100743.88
2023-04-22T09:53:16.129Z,100739.84
2023-04-22T09:55:48.475Z,100736.91
2023-04-22T09:58:17.834Z,100745.66
2023-04-22T10:00:56.965Z,100742.88
2023-04-22T10:03:24.964Z,100750.28
2023-04-22T10:05:52.459Z,100742.59
2023-04-22T10:08:19.860Z,100749.22
2023-04-22T10:10:47.295Z,100746.28
2023-04-22T10:13:17.309Z,100755.03
2023-04-22T10:15:50.632Z,100749.19
2023-04-22T10:18:28.946Z,100755.88
2023-04-22T10:20:57.954Z,100757.84
2023-04-22T10:23:25.702Z,100761.44
2023-04-22T10:25:56.812Z,100761.00
2023-04-22T10:28:29.473Z,100765.44
2023-04-22T10:30:57.482Z,100760.84
2023-04-22T10:33:27.777Z,100766.66
2023-04-22T10:36:08.546Z,100770.22
2023-04-22T10:38:41.746Z,100777.00
2023-04-22T10:41:16.555Z,100772.09
2023-04-22T10:43:46.341Z,100779.22
2023-04-22T10:46:37.576Z,100780.13
2023-04-22T10:49:11.757Z,100780.56
2023-04-22T10:51:42.864Z,100780.97
2023-04-22T10:54:39.012Z,100778.09
2023-04-22T10:57:15.494Z,100781.84
2023-04-22T10:59:53.758Z,100783.72
2023-04-22T11:02:22.870Z,100784.34
2023-04-22T11:04:54.503Z,100786.88
2023-04-22T11:07:27.710Z,100786.00
2023-04-22T11:10:08.158Z,100789.41
2023-04-22T11:12:38.748Z,100795.38
2023-04-22T11:15:17.715Z,100798.13
2023-04-22T11:17:47.583Z,100797.97
2023-04-22T11:20:18.929Z,100797.19
2023-04-22T11:22:49.166Z,100802.41
2023-04-22T11:25:16.814Z,100795.59
2023-04-22T11:27:46.381Z,100795.88
2023-04-22T11:30:19.277Z,100799.63
2023-04-22T11:32:54.033Z,100796.06
2023-04-22T11:35:27.123Z,100789.22
2023-04-22T11:37:56.893Z,100796.22
2023-04-22T11:40:32.122Z,100791.81
2023-04-22T11:43:03.507Z,100793.50
2023-04-22T11:45:32.619Z,100788.06
2023-04-22T11:48:01.842Z,100787.25
2023-04-22T11:50:32.657Z,100788.66
2023-04-22T11:53:01.993Z,100782.53
2023-04-22T11:55:32.975Z,100786.09
2023-04-22T11:58:12.439Z,100791.94
2023-04-22T12:00:47.026Z,100779.19
2023-04-22T12:03:20.521Z,100785.13
2023-04-22T12:05:58.538Z,100787.66
2023-04-22T12:08:33.429Z,100785.50
2023-04-22T12:11:06.301Z,100782.75
2023-04-22T12:13:38.461Z,100785.00
2023-04-22T12:16:12.404Z,100779.66
2023-04-22T12:18:41.342Z,100782.28
2023-04-22T12:21:13.336Z,100787.53
2023-04-22T12:23:45.196Z,100780.88
2023-04-22T12:26:13.957Z,100782.16
2023-04-22T12:28:42.769Z,100787.28
2023-04-22T12:31:11.029Z,100779.09
2023-04-22T12:33:38.932Z,100774.34
2023-04-22T12:36:07.265Z,100776.75
2023-04-22T12:38:35.430Z,100772.03
2023-04-22T12:41:04.652Z,100778.34
2023-04-22T12:43:35.398Z,100783.63
2023-04-22T12:46:04.217Z,100775.75
2023-04-22T12:48:32.620Z,100789.53
2023-04-22T12:51:00.214Z,100780.16
2023-04-22T12:53:28.609Z,100779.69
2023-04-22T12:55:56.573Z,100781.72
2023-04-22T12:58:24.648Z,100783.59
2023-04-22T13:00:52.034Z,100781.81
2023-04-22T13:03:20.034Z,100791.03
2023-04-22T13:05:47.614Z,100784.41
2023-04-22T13:08:15.422Z,100788.16
2023-04-22T13:10:43.387Z,100790.13
2023-04-22T13:13:18.622Z,100783.72
2023-04-22T13:15:50.119Z,100785.66
2023-04-22T13:18:17.703Z,100782.78
2023-04-22T13:20:45.655Z,100781.72
2023-04-22T13:23:13.451Z,100784.91
2023-04-22T13:25:40.865Z,100787.53
2023-04-22T13:28:08.492Z,100790.75
2023-04-22T13:30:36.392Z,100789.38
2023-04-22T13:33:03.797Z,100787.78
2023-04-22T13:35:31.468Z,100788.22
2023-04-22T13:38:00.184Z,100796.53
2023-04-22T13:40:27.686Z,100792.41
2023-04-22T13:42:55.762Z,100790.47
2023-04-22T13:45:23.233Z,100793.53
2023-04-22T13:47:50.882Z,100799.06
2023-04-22T13:50:18.383Z,100788.75
2023-04-22T13:52:46.235Z,100801.81
2023-04-22T13:55:13.661Z,100805.50
2023-04-22T13:57:41.162Z,100802.66
2023-04-22T14:00:09.678Z,100800.91
2023-04-22T14:02:37.543Z,100810.28
2023-04-22T14:05:05.951Z,100808.75
2023-04-22T14:07:33.580Z,100809.97
2023-04-22T14:10:01.287Z,100814.81
2023-04-22T14:12:28.689Z,100809.00
2023-04-22T14:14:56.039Z,100806.41
2023-04-22T14:17:23.925Z,100814.09
2023-04-22T14:19:51.279Z,100815.88
2023-04-22T14:22:18.603Z,100818.09
2023-04-22T14:24:46.179Z,100818.19
2023-04-22T14:27:13.527Z,100821.19
2023-04-22T14:29:41.253Z,100823.97
2023-04-22T14:32:09.051Z,100816.59
2023-04-22T14:34:36.606Z,100825.22
2023-04-22T14:37:03.989Z,100826.28
2023-04-22T14:39:31.571Z,100837.19
2023-04-22T14:41:58.939Z,100834.47
2023-04-22T14:44:26.410Z,100837.19
2023-04-22T14:46:53.843Z,100837.44
2023-04-22T14:49:21.194Z,100832.25
2023-04-22T14:51:49.104Z,100842.72
2023-04-22T14:54:16.511Z,100851.47
2023-04-22T14:56:43.854Z,100847.50
2023-04-22T14:59:11.216Z,100847.28
2023-04-22T15:01:41.883Z,100849.41
2023-04-22T15:04:12.754Z,100859.81
2023-04-22T15:06:40.490Z,100864.19
2023-04-22T15:09:08.113Z,100861.06
2023-04-22T15:11:35.795Z,100865.22
2023-04-22T15:14:03.550Z,100861.25
2023-04-22T15:16:31.436Z,100861.81
2023-04-22T15:18:58.971Z,100867.63
2023-04-22T15:21:26.676Z,100866.41
2023-04-22T15:23:54.051Z,100870.06
2023-04-22T15:26:21.629Z,100871.91
2023-04-22T15:28:50.977Z,100866.69
2023-04-22T15:31:20.839Z,100878.78
2023-04-22T15:33:48.285Z,100873.53
2023-04-22T15:36:18.326Z,100873.78
2023-04-22T15:38:45.717Z,100876.72
2023-04-22T15:41:13.452Z,100876.63
2023-04-22T15:43:40.786Z,100879.97
2023-04-22T15:46:09.781Z,100882.13
2023-04-22T15:48:37.265Z,100876.59
2023-04-22T15:51:04.658Z,100877.81
2023-04-22T15:53:32.022Z,100886.88
2023-04-22T15:55:59.404Z,100884.56
2023-04-22T15:58:26.986Z,100886.34
2023-04-22T16:01:01.739Z,100880.19
2023-04-22T16:03:35.742Z,100889.25
2023-04-22T16:06:03.525Z,100882.44
2023-04-22T16:08:31.397Z,100888.31
2023-04-22T16:10:58.870Z,100894.22
2023-04-22T16:13:27.138Z,100904.25
2023-04-22T16:15:54.555Z,100898.41
2023-04-22T16:18:21.950Z,100903.69
2023-04-22T16:20:49.610Z,100899.34
2023-04-22T16:23:17.091Z,100907.19
2023-04-22T16:25:44.515Z,100914.56
2023-04-22T16:28:11.983Z,100912.50
2023-04-22T16:30:39.574Z,100918.97
2023-04-22T16:33:07.326Z,100922.84
2023-04-22T16:35:35.160Z,100918.91
2023-04-22T16:38:02.586Z,100928.69
2023-04-22T16:40:30.025Z,100922.75
2023-04-22T16:43:02.934Z,100928.88
2023-04-22T16:45:30.610Z,100935.19
2023-04-22T16:47:58.093Z,100930.09
2023-04-22T16:50:25.520Z,100939.38
2023-04-22T16:52:52.906Z,100939.84
2023-04-22T16:55:20.405Z,100946.13
2023-04-22T16:57:50.693Z,100950.53
2023-04-22T17:00:18.792Z,100945.84
2023-04-22T17:02:46.578Z,100944.53
2023-04-22T17:05:14.098Z,100952.41
2023-04-22T17:07:41.581Z,100951.59
2023-04-22T17:10:09.138Z,100964.97
2023-04-22T17:12:36.620Z,100967.00
2023-04-22T17:15:04.492Z,100969.06
2023-04-22T17:17:32.185Z,100970.69
2023-04-22T17:19:59.685Z,100971.19
2023-04-22T17:22:27.406Z,100979.00
2023-04-22T17:24:56.761Z,100993.03
2023-04-22T17:27:24.438Z,100985.97
2023-04-22T17:29:51.819Z,100988.56
2023-04-22T17:32:19.150Z,100994.84
2023-04-22T17:34:46.610Z,100998.00
2023-04-22T17:37:14.056Z,100996.31
2023-04-22T17:39:42.000Z,101000.50
2023-04-22T17:42:09.636Z,101004.81
2023-04-22T17:44:37.126Z,101006.31
2023-04-22T17:47:05.981Z,101015.84
2023-04-22T17:49:34.886Z,101016.31
2023-04-22T17:52:02.270Z,101017.88
2023-04-22T17:54:29.973Z,101017.28
2023-04-22T17:56:57.539Z,101021.81
2023-04-22T17:59:24.985Z,101029.09
2023-04-22T18:01:52.337Z,101024.09
2023-04-22T18:04:20.056Z,101020.59
2023-04-22T18:06:47.720Z,101021.75
2023-04-22T18:09:15.093Z,101034.38
2023-04-22T18:11:42.527Z,101030.69
2023-04-22T18:14:10.492Z,101042.03
2023-04-22T18:16:37.957Z,101049.34
2023-04-22T18:19:06.949Z,101045.13
2023-04-22T18:21:34.957Z,101050.69
2023-04-22T18:24:02.817Z,101047.66
2023-04-22T18:26:30.262Z,101045.31
2023-04-22T18:28:57.692Z,101057.44
2023-04-22T18:31:25.733Z,101051.13
2023-04-22T18:33:53.216Z,101050.25
2023-04-22T18:36:21.536Z,101056.75
2023-04-22T18:38:48.989Z,101056.16
2023-04-22T18:41:16.606Z,101061.41
2023-04-22T18:43:43.999Z,101061.59
2023-04-22T18:46:11.439Z,101056.56
2023-04-22T18:48:38.856Z,101060.94
2023-04-22T18:51:06.577Z,101071.41
2023-04-22T18:53:34.423Z,101064.66
2023-04-22T18:56:02.289Z,101066.19
2023-04-22T18:58:29.865Z,101066.44
2023-04-22T19:00:57.456Z,101072.97
2023-04-22T19:03:25.058Z,101068.41
2023-04-22T19:05:52.550Z,101059.72
2023-04-22T19:08:20.178Z,101065.03
2023-04-22T19:10:47.526Z,101065.25
2023-04-22T19:13:28.534Z,101065.00
2023-04-22T19:15:57.161Z,101064.81
2023-04-22T19:18:25.015Z,101063.44
2023-04-22T19:20:52.467Z,101072.22
2023-04-22T19:23:20.735Z,101067.34
2023-04-22T19:25:48.188Z,101065.94
2023-04-22T19:28:15.739Z,101062.91
2023-04-22T19:30:43.404Z,101062.22
2023-04-22T19:33:11.288Z,101062.22
2023-04-22T19:35:38.835Z,101060.84
2023-04-22T19:38:06.501Z,101067.22
2023-04-22T19:40:35.218Z,101063.88
2023-04-22T19:43:02.849Z,101070.34
2023-04-22T19:45:30.566Z,101056.19
2023-04-22T19:47:58.371Z,101052.16
2023-04-22T19:50:26.542Z,101064.41
2023-04-22T19:53:03.422Z,101056.41
2023-04-22T19:55:33.867Z,101061.13
2023-04-22T19:58:01.547Z,101055.75
2023-04-22T20:00:32.194Z,101058.59
2023-04-22T20:02:59.963Z,101061.44
2023-04-22T20:05:28.082Z,101059.75
2023-04-22T20:08:00.312Z,101055.91
2023-04-22T20:10:28.659Z,101060.28
2023-04-22T20:12:56.678Z,101071.03
2023-04-22T20:15:24.498Z,101069.00
2023-04-22T20:17:52.364Z,101075.72
2023-04-22T20:20:21.521Z,101069.66
2023-04-22T20:22:51.648Z,101079.41
2023-04-22T20:25:19.425Z,101074.72
2023-04-22T20:27:47.082Z,101078.41
2023-04-22T20:30:14.870Z,101080.44
2023-04-22T20:32:42.861Z,101080.09
2023-04-22T20:35:14.957Z,101086.31
2023-04-22T20:37:44.209Z,101083.59
2023-04-22T20:40:14.949Z,101084.75
2023-04-22T20:42:42.545Z,101095.34
2023-04-22T20:45:15.144Z,101092.19
2023-04-22T20:47:42.907Z,101091.16
2023-04-22T20:50:11.112Z,101094.84
2023-04-22T20:52:39.152Z,101089.66
2023-04-22T20:55:07.125Z,101088.28
2023-04-22T20:57:35.391Z,101087.22
2023-04-22T21:00:02.804Z,101082.34
2023-04-22T21:02:32.242Z,101087.63
2023-04-22T21:05:00.621Z,101086.91
2023-04-22T21:07:30.851Z,101081.00
2023-04-22T21:09:58.586Z,101082.00
2023-04-22T21:12:26.402Z,101075.47
2023-04-22T21:14:54.288Z,101079.69
2023-04-22T21:17:28.220Z,101081.50
2023-04-22T21:19:57.822Z,101074.78
2023-04-22T21:22:25.527Z,101080.31
2023-04-22T21:24:53.917Z,101084.06
2023-04-22T21:27:22.573Z,101073.63
2023-04-22T21:29:50.370Z,101070.13
2023-04-22T21:32:20.246Z,101072.59
2023-04-22T21:34:47.805Z,101078.97
2023-04-22T21:37:15.289Z,101090.06
2023-04-22T21:39:42.676Z,101088.91
2023-04-22T21:42:10.197Z,101089.38
2023-04-22T21:44:38.122Z,101090.00
2023-04-22T21:47:06.836Z,101096.69
2023-04-22T21:49:34.253Z,101100.38
2023-04-22T21:52:01.733Z,101100.31
2023-04-22T21:54:29.395Z,101106.38
2023-04-22T21:56:57.838Z,101105.16
2023-04-22T21:59:25.361Z,101111.22
2023-04-22T22:01:53.168Z,101115.25
2023-04-22T22:04:20.863Z,101113.44
2023-04-22T22:06:49.102Z,101111.59
2023-04-22T22:09:16.694Z,101117.59
2023-04-22T22:11:44.570Z,101105.69
2023-04-22T22:14:12.021Z,101104.16
2023-04-22T22:16:39.551Z,101118.56
2023-04-22T22:19:07.141Z,101114.47
2023-04-22T22:21:34.746Z,101109.78
2023-04-22T22:24:02.278Z,101116.00
2023-04-22T22:26:29.881Z,101121.28
2023-04-22T22:28:57.234Z,101126.44
2023-04-22T22:31:24.660Z,101121.34
2023-04-22T22:33:52.318Z,101124.81
2023-04-22T22:36:19.874Z,101125.66
2023-04-22T22:38:47.267Z,101130.00
2023-04-22T22:41:14.631Z,101127.44
2023-04-22T22:43:42.073Z,101135.47
2023-04-22T22:46:09.558Z,101138.41
2023-04-22T22:48:37.020Z,101137.81
2023-04-22T22:51:04.386Z,101134.97
2023-04-22T22:53:34.326Z,101129.09
2023-04-22T22:56:01.728Z,101134.41
2023-04-22T22:58:29.171Z,101140.28
2023-04-22T23:00:56.729Z,101139.31
2023-04-22T23:03:24.330Z,101144.00
2023-04-22T23:05:51.852Z,101141.28
2023-04-22T23:08:20.164Z,101134.25
2023-04-22T23:10:47.661Z,101137.66
2023-04-22T23:13:15.085Z,101134.34
2023-04-22T23:15:42.489Z,101146.00
2023-04-22T23:18:10.640Z,101137.19
2023-04-22T23:20:38.983Z,101149.47
2023-04-22T23:23:07.011Z,101151.38
2023-04-22T23:25:34.657Z,101140.88
2023-04-22T23:28:02.701Z,101142.16
2023-04-22T23:30:30.657Z,101145.75
2023-04-22T23:33:03.527Z,101144.47
2023-04-22T23:35:33.233Z,101148.22
2023-04-22T23:38:01.901Z,101157.16
2023-04-22T23:40:29.518Z,101152.19
2023-04-22T23:42:56.890Z,101163.34
2023-04-22T23:45:24.484Z,101163.34
2023-04-22T23:47:52.622Z,101147.38
2023-04-22T23:50:20.078Z,101159.53
2023-04-22T23:52:47.434Z,101163.31
2023-04-22T23:55:16.145Z,101163.53
2023-04-22T23:57:43.908Z,101167.84
